Time;durP1;ratioP1;P1;durP2;ratioP2;P2;SDS_P1;SDS_P2;PMS_P1;PMS_P2;Temp;Humidity;BMP_temperature;BMP_pressure;BME280_temperature;BME280_humidity;BME280_pressure;Samples;Min_cycle;Max_cycle;Signal;HPM_P1;HPM_P2
2023/05/11 00:01:52;;;;;;;47.67;22.25;;;12.20;99.90;;;13.43;100.00;100671.91;5055141;28;20052;-77
2023/05/11 00:04:18;;;;;;;46.70;22.10;;;12.20;99.90;;;13.38;100.00;100675.31;5059969;28;20041;-77
2023/05/11 00:06:44;;;;;;;44.50;22.02;;;12.20;99.90;;;13.33;100.00;100672.44;5053804;28;20455;-77
2023/05/11 00:09:10;;;;;;;45.83;21.60;;;12.20;99.90;;;13.30;100.00;100670.16;5057040;28;20041;-77
2023/05/11 00:11:36;;;;;;;43.72;22.00;;;12.20;99.90;;;13.37;100.00;100679.13;5053616;28;20037;-77
2023/05/11 00:14:02;;;;;;;38.72;21.35;;;12.20;99.90;;;13.36;100.00;100677.44;5053852;28;20051;-77
2023/05/11 00:16:27;;;;;;;44.58;22.55;;;12.20;99.90;;;13.36;100.00;100671.97;5057088;28;20377;-77
2023/05/11 00:18:53;;;;;;;48.03;22.35;;;12.30;99.90;;;13.34;100.00;100670.50;5054375;28;20037;-77
2023/05/11 00:21:19;;;;;;;49.28;23.63;;;12.30;99.90;;;13.35;100.00;100672.19;5052164;28;20025;-77
2023/05/11 00:23:45;;;;;;;46.22;22.95;;;12.30;99.90;;;13.36;100.00;100673.84;5056741;28;20041;-77
2023/05/11 00:26:10;;;;;;;42.00;22.15;;;12.30;99.90;;;13.32;100.00;100664.44;5053680;28;20128;-77
2023/05/11 00:28:37;;;;;;;40.95;21.45;;;12.30;99.90;;;13.30;100.00;100670.16;5053521;28;20040;-76
2023/05/11 00:31:02;;;;;;;46.17;23.25;;;12.30;99.90;;;13.33;100.00;100666.97;5053480;28;20037;-76
2023/05/11 00:33:28;;;;;;;52.58;23.95;;;12.30;99.90;;;13.28;100.00;100657.75;5056666;28;20051;-77
2023/05/11 00:35:54;;;;;;;41.88;22.73;;;12.30;99.90;;;13.29;100.00;100654.81;5059350;28;20090;-77
2023/05/11 00:38:19;;;;;;;40.55;22.55;;;12.30;99.90;;;13.36;100.00;100669.22;5053345;28;20040;-77
2023/05/11 00:40:47;;;;;;;55.97;27.42;;;12.30;99.90;;;13.31;100.00;100663.63;5053449;28;20477;-77
2023/05/11 00:43:12;;;;;;;53.83;26.75;;;12.40;99.90;;;13.30;100.00;100653.72;5053594;28;20037;-77
2023/05/11 00:45:39;;;;;;;54.53;27.95;;;12.40;99.90;;;13.42;100.00;100669.34;5052993;28;20048;-77
2023/05/11 00:48:05;;;;;;;49.88;26.30;;;12.40;99.90;;;13.47;100.00;100664.88;5052987;28;20108;-76
2023/05/11 00:50:31;;;;;;;52.85;26.80;;;12.40;99.90;;;13.46;100.00;100671.44;5051794;28;20125;-76
2023/05/11 00:52:57;;;;;;;53.53;26.40;;;12.40;99.90;;;13.42;100.00;100674.81;5066380;28;20080;-77
2023/05/11 00:55:23;;;;;;;47.33;23.92;;;12.40;99.90;;;13.40;100.00;100672.34;5052038;28;20033;-76
2023/05/11 00:57:49;;;;;;;42.38;21.95;;;12.30;99.90;;;13.41;100.00;100668.53;5051424;28;20041;-76
2023/05/11 01:00:15;;;;;;;42.00;21.73;;;12.30;99.90;;;13.30;100.00;100661.94;5052854;28;20036;-76
2023/05/11 01:02:41;;;;;;;48.38;23.25;;;12.30;99.90;;;13.37;100.00;100670.88;5052706;28;20036;-76
2023/05/11 01:05:08;;;;;;;45.05;22.40;;;12.30;99.90;;;13.36;100.00;100673.84;5055834;28;20025;-76
2023/05/11 01:08:16;;;;;;;45.60;23.58;;;12.30;99.90;;;13.41;100.00;100679.50;5052532;28;20043;-77
2023/05/11 01:10:59;;;;;;;46.33;21.83;;;12.30;99.90;;;13.41;100.00;100671.28;4992762;28;20967;-76
2023/05/11 01:13:44;;;;;;;44.85;22.00;;;12.30;99.90;;;13.42;100.00;100674.81;4978626;28;20462;-77
2023/05/11 01:16:23;;;;;;;41.90;22.08;;;12.30;99.90;;;13.47;100.00;100666.75;5036928;28;20585;-77
2023/05/11 01:19:17;;;;;;;42.00;20.42;;;12.40;99.90;;;13.43;100.00;100671.91;5065499;28;20070;-77
2023/05/11 01:21:47;;;;;;;40.72;20.02;;;12.40;99.90;;;13.50;100.00;100677.25;5088319;28;20131;-77
2023/05/11 01:24:44;;;;;;;40.00;20.98;;;12.40;99.90;;;13.48;100.00;100680.25;5052584;28;20392;-77
2023/05/11 01:28:06;;;;;;;42.67;22.95;;;12.40;99.90;;;13.42;100.00;100677.56;5058718;28;20384;-78
2023/05/11 01:30:50;;;;;;;47.35;24.10;;;12.40;99.90;;;13.37;100.00;100676.38;5067741;28;20032;-78
2023/05/11 01:33:26;;;;;;;46.10;23.13;;;12.40;99.90;;;13.44;100.00;100672.72;5051359;28;20493;-77
2023/05/11 01:35:58;;;;;;;47.33;23.20;;;12.50;99.90;;;13.33;100.00;100666.09;5068037;28;20035;-78
2023/05/11 01:38:31;;;;;;;47.22;24.60;;;12.50;99.90;;;13.35;100.00;100677.66;5051011;28;20094;-78
2023/05/11 01:40:59;;;;;;;50.20;25.25;;;12.60;99.90;;;13.47;100.00;100674.97;5052250;28;20362;-77
2023/05/11 01:43:29;;;;;;;46.60;24.15;;;12.60;99.90;;;13.53;100.00;100679.53;5052191;28;20043;-77
2023/05/11 01:45:59;;;;;;;48.58;25.10;;;12.50;99.90;;;13.48;100.00;100673.91;5061141;28;20047;-77
2023/05/11 01:48:32;;;;;;;45.28;23.17;;;12.50;99.90;;;13.42;100.00;100681.16;5058234;28;20103;-77
2023/05/11 01:51:01;;;;;;;44.13;23.77;;;12.50;99.90;;;13.46;100.00;100679.66;5051934;28;20072;-77
2023/05/11 01:53:33;;;;;;;42.45;22.13;;;12.50;99.90;;;13.42;100.00;100681.16;5056306;28;20044;-77
2023/05/11 01:56:00;;;;;;;43.85;23.75;;;12.50;99.90;;;13.35;100.00;100670.28;5052271;28;20037;-77
2023/05/11 01:58:29;;;;;;;45.67;24.20;;;12.50;99.90;;;13.31;100.00;100669.09;5051439;28;20056;-77
2023/05/11 02:00:56;;;;;;;40.90;22.85;;;12.50;99.90;;;13.39;100.00;100681.59;5057142;28;20059;-76
2023/05/11 02:03:26;;;;;;;42.42;23.25;;;12.50;99.90;;;13.36;100.00;100674.69;5050684;28;20068;-77
2023/05/11 02:05:53;;;;;;;41.55;21.98;;;12.50;99.90;;;13.38;100.00;100668.97;5050238;28;20104;-77
2023/05/11 02:08:21;;;;;;;40.13;21.75;;;12.50;99.90;;;13.41;100.00;100679.50;5049732;28;20095;-77
2023/05/11 02:10:49;;;;;;;43.60;22.25;;;12.40;99.90;;;13.43;100.00;100690.22;5050789;28;20068;-77
2023/05/11 02:13:18;;;;;;;35.92;20.55;;;12.40;99.90;;;13.32;100.00;100664.44;5049271;28;20096;-77
2023/05/11 02:15:46;;;;;;;37.00;20.63;;;12.30;99.90;;;13.23;100.00;100683.13;5056254;28;20033;-77
2023/05/11 02:18:14;;;;;;;39.03;20.80;;;12.30;99.90;;;13.20;100.00;100678.97;5057704;28;20028;-78
2023/05/11 02:20:44;;;;;;;34.72;19.33;;;12.30;99.90;;;13.07;100.00;100669.03;5054460;28;20041;-77
2023/05/11 02:23:10;;;;;;;37.05;19.40;;;12.30;99.90;;;13.15;100.00;100673.34;5059150;28;20052;-77
2023/05/11 02:25:39;;;;;;;33.83;19.38;;;12.20;99.90;;;13.15;100.00;100675.22;5088122;28;20028;-78
2023/05/11 02:28:06;;;;;;;36.13;19.48;;;12.20;99.90;;;13.09;100.00;100677.84;5061402;28;20409;-77
2023/05/11 02:30:40;;;;;;;32.85;18.10;;;12.20;99.90;;;13.08;100.00;100678.06;5087871;28;20064;-77
2023/05/11 02:33:08;;;;;;;31.00;17.13;;;12.20;99.90;;;12.99;100.00;100683.03;5055837;28;20032;-77
2023/05/11 02:35:41;;;;;;;33.40;18.05;;;12.20;99.90;;;12.93;100.00;100676.59;5058751;28;20029;-77
2023/05/11 02:38:09;;;;;;;30.15;18.10;;;12.10;99.90;;;13.01;100.00;100686.41;5054772;28;20036;-77
2023/05/11 02:40:45;;;;;;;32.92;18.48;;;12.10;99.90;;;12.99;100.00;100682.22;5056242;28;20078;-77
2023/05/11 02:43:17;;;;;;;32.55;17.77;;;12.10;99.90;;;13.04;100.00;100680.44;5037437;28;20028;-77
2023/05/11 02:45:59;;;;;;;29.98;17.27;;;12.10;99.90;;;13.04;100.00;100685.94;5074689;28;20064;-78
2023/05/11 02:48:31;;;;;;;30.58;17.90;;;12.20;99.90;;;12.99;100.00;100677.56;5054435;28;20037;-77
2023/05/11 02:51:02;;;;;;;32.78;18.80;;;12.20;99.90;;;13.02;100.00;100682.59;5074824;28;20401;-77
2023/05/11 02:53:36;;;;;;;28.67;17.75;;;12.20;99.90;;;13.07;100.00;100681.88;5056644;28;20028;-77
2023/05/11 02:56:03;;;;;;;33.80;19.02;;;12.20;99.90;;;12.99;100.00;100679.47;5058266;28;20507;-77
2023/05/11 02:58:31;;;;;;;34.60;19.85;;;12.20;99.90;;;12.97;100.00;100676.94;5053452;28;20025;-76
2023/05/11 03:01:11;;;;;;;34.58;19.63;;;12.20;99.90;;;12.94;100.00;100685.63;5065324;28;20033;-77
2023/05/11 03:03:38;;;;;;;35.25;20.90;;;12.20;99.90;;;12.93;100.00;100681.22;5053486;28;20136;-76
2023/05/11 03:06:03;;;;;;;37.40;20.55;;;12.20;99.90;;;12.89;100.00;100680.88;5055351;28;20029;-76
2023/05/11 03:08:29;;;;;;;35.97;20.83;;;12.20;99.90;;;12.91;100.00;100677.88;5055451;28;20033;-77
2023/05/11 03:10:57;;;;;;;35.42;20.33;;;12.20;99.90;;;12.87;100.00;100679.41;5061165;28;20056;-76
2023/05/11 03:13:24;;;;;;;30.15;19.02;;;12.20;99.90;;;12.94;100.00;100682.91;5070165;28;20499;-76
2023/05/11 03:15:53;;;;;;;31.45;19.35;;;12.20;99.90;;;12.85;100.00;100678.81;5054069;28;20068;-76
2023/05/11 03:18:21;;;;;;;31.23;19.85;;;12.20;99.90;;;12.92;100.00;100687.78;5059598;28;20025;-77
2023/05/11 03:20:49;;;;;;;31.65;19.40;;;12.20;99.90;;;12.67;100.00;100658.63;5054844;28;20051;-81
2023/05/11 03:23:17;;;;;;;;;;;12.20;99.90;;;12.92;100.00;100683.16;5058438;28;20033;-81
2023/05/11 03:25:44;;;;;;;29.13;17.65;;;12.10;99.90;;;13.01;100.00;100689.13;5054818;28;20376;-76
2023/05/11 03:28:13;;;;;;;32.47;19.42;;;12.10;99.90;;;13.01;100.00;100683.66;5057611;28;20064;-76
2023/05/11 03:30:45;;;;;;;29.30;18.58;;;12.10;99.90;;;13.02;100.00;100687.22;5053198;28;20025;-76
2023/05/11 03:33:11;;;;;;;28.25;17.58;;;12.00;99.90;;;13.01;100.00;100686.41;5053123;28;20047;-77
2023/05/11 03:35:42;;;;;;;27.40;17.38;;;12.00;99.90;;;13.01;100.00;100686.41;5074716;28;20033;-76
2023/05/11 03:38:11;;;;;;;28.55;17.77;;;12.00;99.90;;;13.01;100.00;100697.34;5054217;28;20033;-76
2023/05/11 03:40:40;;;;;;;28.17;17.10;;;12.00;99.90;;;12.94;100.00;100688.38;5072726;28;20032;-76
2023/05/11 03:43:13;;;;;;;27.27;17.67;;;12.00;99.90;;;12.87;100.00;100690.38;5054365;28;20112;-77
2023/05/11 03:45:43;;;;;;;28.55;17.73;;;12.00;99.90;;;12.87;100.00;100690.38;5052922;28;20135;-76
2023/05/11 03:48:13;;;;;;;26.58;16.35;;;12.00;99.90;;;12.82;100.00;100682.03;5061708;28;20036;-76
2023/05/11 03:50:39;;;;;;;26.27;16.98;;;12.00;99.90;;;12.82;100.00;100674.63;5057056;28;20024;-76
2023/05/11 03:53:05;;;;;;;26.80;16.80;;;12.00;99.90;;;12.79;100.00;100678.69;5061557;28;20032;-77
2023/05/11 03:55:31;;;;;;;26.88;17.73;;;12.00;99.90;;;12.83;100.00;100673.56;5062703;28;20438;-77
2023/05/11 03:57:57;;;;;;;24.48;16.30;;;12.00;99.90;;;12.83;100.00;100675.47;5060011;28;20037;-77
2023/05/11 04:00:23;;;;;;;27.45;17.05;;;12.00;99.90;;;12.86;100.00;100680.50;5073774;28;20382;-76
2023/05/11 04:02:49;;;;;;;28.40;17.48;;;12.00;99.90;;;12.87;100.00;100679.41;5068624;28;20037;-75
2023/05/11 04:05:17;;;;;;;24.52;15.70;;;12.00;99.90;;;12.87;100.00;100683.00;5068253;28;20029;-76
2023/05/11 04:07:44;;;;;;;23.58;15.38;;;12.00;99.90;;;12.87;100.00;100682.16;5067365;28;20040;-75
2023/05/11 04:10:10;;;;;;;27.08;16.20;;;12.00;99.90;;;12.85;100.00;100684.28;5075505;28;20040;-76
2023/05/11 04:12:36;;;;;;;25.48;15.85;;;12.00;99.90;;;12.88;100.00;100681.94;5062407;28;20052;-76
2023/05/11 04:15:02;;;;;;;24.15;16.52;;;12.00;99.90;;;12.94;100.00;100680.16;5053985;28;20029;-77
2023/05/11 04:17:27;;;;;;;28.27;17.52;;;12.10;99.90;;;12.97;100.00;100684.34;5072523;28;20040;-76
2023/05/11 04:19:53;;;;;;;27.02;16.65;;;12.10;99.90;;;13.03;100.00;100680.66;5065041;28;20029;-77
2023/05/11 04:22:19;;;;;;;28.55;17.27;;;12.20;99.90;;;12.99;100.00;100680.28;5052329;28;20045;-77
2023/05/11 04:24:44;;;;;;;24.17;16.65;;;12.20;99.90;;;13.02;100.00;100682.59;5051978;28;20045;-77
2023/05/11 04:27:10;;;;;;;26.60;17.52;;;12.20;99.90;;;13.01;100.00;100680.06;5053176;28;20032;-76
2023/05/11 04:29:36;;;;;;;25.38;15.80;;;12.20;99.90;;;13.13;100.00;100678.22;5068653;28;20380;-75
2023/05/11 04:32:02;;;;;;;28.48;17.65;;;12.20;99.90;;;13.07;100.00;100688.19;5056723;28;20049;-77
2023/05/11 04:34:28;;;;;;;27.02;17.20;;;12.30;99.90;;;13.16;100.00;100682.38;5047888;28;20029;-76
2023/05/11 04:36:55;;;;;;;26.88;16.90;;;12.30;99.90;;;13.20;100.00;100678.97;5073982;28;20036;-76
2023/05/11 04:39:20;;;;;;;29.63;17.63;;;12.30;99.90;;;13.25;100.00;100686.44;5052766;28;20041;-76
2023/05/11 04:41:46;;;;;;;23.45;16.83;;;12.30;99.90;;;13.32;100.00;100691.84;5059463;28;20487;-76
2023/05/11 04:44:12;;;;;;;28.25;17.67;;;12.40;99.90;;;13.39;100.00;100689.81;5051740;28;20029;-78
2023/05/11 04:46:37;;;;;;;24.17;16.30;;;12.40;99.90;;;13.40;100.00;100693.41;5051915;28;20432;-77
2023/05/11 04:49:04;;;;;;;23.67;16.60;;;12.50;99.90;;;13.48;100.00;100696.69;5055582;28;20060;-76
2023/05/11 04:51:31;;;;;;;25.05;17.17;;;12.50;99.90;;;13.41;100.00;100679.50;5051839;28;20047;-78
2023/05/11 04:53:58;;;;;;;23.27;15.98;;;12.60;99.90;;;13.61;100.00;100700.28;5068380;28;20389;-78
2023/05/11 04:56:25;;;;;;;23.17;16.52;;;12.70;99.90;;;13.68;100.00;100705.66;5056999;28;20041;-76
2023/05/11 04:58:51;;;;;;;21.90;15.48;;;12.70;99.90;;;13.66;100.00;100706.72;5052296;28;20115;-76
2023/05/11 05:01:16;;;;;;;21.67;16.23;;;12.70;99.90;;;13.63;100.00;100696.22;5053166;28;20559;-77
2023/05/11 05:03:42;;;;;;;22.95;17.17;;;12.80;99.90;;;13.68;100.00;100711.97;5039556;28;20502;-79
2023/05/11 05:06:08;;;;;;;23.13;15.63;;;12.80;99.90;;;13.73;100.00;100708.50;5055021;28;20032;-78
2023/05/11 05:08:35;;;;;;;24.23;16.23;;;12.80;99.90;;;13.75;100.00;100706.38;5051610;28;20029;-79
2023/05/11 05:11:01;;;;;;;22.27;15.50;;;12.80;99.90;;;13.71;100.00;100717.00;5050895;28;20040;-77
2023/05/11 05:13:27;;;;;;;19.83;14.88;;;12.90;99.90;;;13.61;100.00;100714.81;5055302;28;20075;-83
2023/05/11 05:15:52;;;;;;;20.38;14.23;;;12.80;99.90;;;13.57;100.00;100716.38;5059555;28;20400;-78
2023/05/11 05:18:18;;;;;;;18.77;14.80;;;12.80;99.90;;;13.54;100.00;100714.09;5058786;28;20036;-77
2023/05/11 05:20:46;;;;;;;19.48;13.80;;;12.80;99.90;;;13.60;100.00;100715.03;5052823;28;20411;-77
2023/05/11 05:23:12;;;;;;;20.42;14.75;;;12.80;99.90;;;13.65;100.00;100715.16;5048824;28;20076;-77
2023/05/11 05:25:38;;;;;;;20.67;14.60;;;12.90;99.90;;;13.87;100.00;100715.44;5054360;28;20025;-77
2023/05/11 05:28:05;;;;;;;21.38;15.40;;;13.00;99.90;;;13.84;100.00;100706.84;5065636;28;20491;-78
2023/05/11 05:30:31;;;;;;;19.05;14.88;;;13.00;99.90;;;13.99;100.00;100720.09;5057926;28;20037;-78
2023/05/11 05:32:57;;;;;;;22.48;15.48;;;13.10;99.90;;;13.92;100.00;100718.31;5063413;28;20033;-80
2023/05/11 05:35:23;;;;;;;20.45;15.32;;;13.10;99.90;;;13.95;100.00;100715.09;5091062;28;20058;-79
2023/05/11 05:37:49;;;;;;;20.92;15.45;;;13.10;99.90;;;13.73;100.00;100712.09;5058354;28;20025;-79
2023/05/11 05:40:15;;;;;;;20.73;14.93;;;13.20;99.90;;;13.84;100.00;100726.91;5069071;28;20116;-79
2023/05/11 05:42:46;;;;;;;20.02;14.88;;;13.20;99.90;;;13.80;100.00;100732.00;5058447;28;20044;-80
2023/05/11 05:45:15;;;;;;;20.23;15.30;;;13.20;99.90;;;13.98;100.00;100726.66;5067841;28;20028;-80
2023/05/11 05:47:41;;;;;;;20.92;15.35;;;13.20;99.90;;;13.91;100.00;100721.28;5057898;28;20055;-79
2023/05/11 05:50:07;;;;;;;22.65;16.15;;;13.30;99.90;;;14.06;100.00;100731.81;5055781;28;20441;-78
2023/05/11 05:52:33;;;;;;;21.95;15.93;;;13.30;99.90;;;13.97;100.00;100725.00;5050882;28;20028;-79
2023/05/11 05:55:00;;;;;;;21.75;16.05;;;13.30;99.90;;;14.08;100.00;100735.16;5067717;28;20048;-77
2023/05/11 05:57:25;;;;;;;22.27;16.05;;;13.30;99.90;;;14.19;100.00;100736.19;5052218;28;20385;-76
2023/05/11 05:59:52;;;;;;;22.35;16.75;;;13.30;99.90;;;14.08;100.00;100741.44;5050795;28;20029;-77
2023/05/11 06:02:18;;;;;;;22.02;16.50;;;13.30;99.90;;;14.13;100.00;100740.75;5067100;28;20178;-77
2023/05/11 06:04:44;;;;;;;23.52;17.23;;;13.30;99.90;;;14.13;100.00;100746.22;5052011;28;20048;-78
2023/05/11 06:07:10;;;;;;;23.95;17.10;;;13.30;99.90;;;14.10;100.00;100750.28;5046400;28;20036;-76
2023/05/11 06:09:36;;;;;;;22.15;16.90;;;13.30;99.90;;;14.13;100.00;100748.13;5068065;28;20376;-76
2023/05/11 06:12:02;;;;;;;22.40;16.52;;;13.30;99.90;;;14.14;100.00;100753.38;5072079;28;20079;-77
2023/05/11 06:14:30;;;;;;;24.30;17.58;;;13.30;99.90;;;14.05;100.00;100746.56;5039157;28;20515;-76
2023/05/11 06:16:56;;;;;;;26.20;18.23;;;13.30;99.90;;;13.98;100.00;100751.34;5069406;28;20080;-76
2023/05/11 06:19:22;;;;;;;22.95;17.60;;;13.30;99.90;;;13.84;100.00;100745.25;5059339;28;20028;-77
2023/05/11 06:21:48;;;;;;;23.38;17.30;;;13.30;99.90;;;13.75;100.00;100755.72;5061736;28;20033;-76
2023/05/11 06:24:14;;;;;;;25.23;17.58;;;13.20;99.90;;;13.64;100.00;100749.97;5071384;28;20956;-77
2023/05/11 06:26:42;;;;;;;24.88;17.75;;;13.20;99.90;;;13.68;100.00;100749.50;5070759;28;20033;-76
2023/05/11 06:29:09;;;;;;;26.02;18.23;;;13.10;99.90;;;13.61;100.00;100742.22;5076142;28;20495;-76
2023/05/11 06:31:35;;;;;;;29.70;18.98;;;13.10;99.90;;;13.59;100.00;100746.28;5062550;28;20086;-77
2023/05/11 06:34:03;;;;;;;;;;;13.10;99.90;;;13.75;100.00;100740.13;5065277;28;20096;-78
2023/05/11 06:36:31;;;;;;;28.55;19.08;;;13.10;99.90;;;13.68;100.00;100739.41;5090984;28;20324;-78
2023/05/11 06:38:56;;;;;;;29.85;19.27;;;13.10;99.90;;;13.88;100.00;100739.06;5051193;28;20476;-79
2023/05/11 06:41:22;;;;;;;31.70;20.55;;;13.20;99.90;;;14.02;100.00;100741.56;5069741;28;20039;-78
2023/05/11 06:43:48;;;;;;;34.92;21.90;;;13.30;99.90;;;14.04;100.00;100744.91;5065243;28;20044;-79
2023/05/11 06:46:25;;;;;;;32.40;21.70;;;13.30;99.90;;;14.03;100.00;100737.75;5063053;28;20025;-78
2023/05/11 06:48:52;;;;;;;34.47;21.58;;;13.40;99.90;;;14.08;100.00;100744.19;5059239;28;20136;-79
2023/05/11 06:51:19;;;;;;;33.72;22.10;;;13.40;99.90;;;14.10;100.00;100742.03;5060587;28;20033;-79
2023/05/11 06:53:45;;;;;;;34.50;21.98;;;13.50;99.90;;;14.16;100.00;100745.75;5056035;28;20437;-79
2023/05/11 06:56:11;;;;;;;35.40;22.30;;;13.50;99.90;;;14.30;100.00;100746.34;5053334;28;20075;-79
2023/05/11 06:58:37;;;;;;;34.38;22.40;;;13.50;99.90;;;14.21;100.00;100754.09;5053589;28;20028;-79
2023/05/11 07:01:06;;;;;;;36.08;22.58;;;13.60;99.90;;;14.42;100.00;100740.00;5058820;28;20052;-78
2023/05/11 07:03:33;;;;;;;36.47;22.98;;;13.60;99.90;;;14.42;100.00;100737.25;5055442;28;20032;-79
2023/05/11 07:05:59;;;;;;;37.80;22.00;;;13.60;99.90;;;14.50;100.00;100745.16;5038826;28;20167;-79
2023/05/11 07:08:24;;;;;;;34.60;21.08;;;13.60;99.90;;;14.56;100.00;100748.81;5056665;28;20483;-79
2023/05/11 07:10:51;;;;;;;40.10;22.33;;;13.60;99.90;;;14.48;100.00;100748.13;5062614;28;20077;-78
2023/05/11 07:13:17;;;;;;;36.83;21.98;;;13.70;99.90;;;14.41;100.00;100739.19;5069306;28;20048;-79
2023/05/11 07:15:42;;;;;;;36.60;21.67;;;13.70;99.90;;;14.59;100.00;100748.34;5062578;28;20044;-79
2023/05/11 07:18:08;;;;;;;35.70;20.98;;;13.70;99.90;;;14.56;100.00;100741.44;5095953;28;20510;-76
2023/05/11 07:20:35;;;;;;;33.55;21.75;;;13.70;99.90;;;14.61;100.00;100748.94;5058716;28;20048;-77
2023/05/11 07:23:02;;;;;;;34.15;21.33;;;13.70;99.90;;;14.59;100.00;100748.34;5054821;28;20369;-78
2023/05/11 07:25:29;;;;;;;37.20;21.42;;;13.60;99.90;;;14.56;100.00;100759.78;5058737;28;20033;-78
2023/05/11 07:27:55;;;;;;;32.83;21.02;;;13.60;99.90;;;14.48;100.00;100739.88;5055823;28;20214;-77
2023/05/11 07:30:21;;;;;;;35.45;22.08;;;13.70;99.90;;;14.58;100.00;100757.63;5071714;28;20207;-79
2023/05/11 07:32:47;;;;;;;31.00;20.73;;;13.70;99.90;;;14.53;100.00;100750.97;5061814;28;20033;-77
2023/05/11 07:35:14;;;;;;;31.40;19.98;;;13.70;99.90;;;14.69;100.00;100759.56;5064403;28;20063;-78
2023/05/11 07:37:40;;;;;;;33.17;20.75;;;13.80;99.90;;;14.70;100.00;100757.63;5055153;28;20037;-78
2023/05/11 07:40:07;;;;;;;32.65;20.92;;;13.90;99.90;;;14.84;100.00;100760.97;5067581;28;20052;-77
2023/05/11 07:42:33;;;;;;;31.38;20.48;;;13.90;99.90;;;15.00;100.00;100757.47;5054477;28;20433;-77
2023/05/11 07:44:58;;;;;;;35.97;22.00;;;14.00;99.90;;;15.06;100.00;100756.47;5054588;28;20040;-76
2023/05/11 07:47:24;;;;;;;33.53;21.73;;;14.10;99.90;;;15.14;100.00;100757.19;5060810;28;20045;-77
2023/05/11 07:49:50;;;;;;;33.40;21.80;;;14.20;99.90;;;15.19;100.00;100757.28;5054261;28;20037;-77
2023/05/11 07:52:16;;;;;;;30.55;19.40;;;14.30;99.90;;;15.27;100.00;100756.06;5055278;28;20120;-77
2023/05/11 07:54:42;;;;;;;25.75;17.63;;;14.40;99.90;;;14.93;100.00;100757.59;5055745;28;20036;-78
2023/05/11 07:57:12;;;;;;;27.27;18.23;;;14.30;99.90;;;14.94;100.00;100762.00;5065105;28;20124;-78
2023/05/11 07:59:39;;;;;;;27.52;17.58;;;14.30;99.90;;;15.03;100.00;100759.72;5069734;28;20043;-77
2023/05/11 08:02:08;;;;;;;21.80;15.20;;;14.30;99.90;;;15.14;100.00;100765.44;5053915;28;20079;-74
2023/05/11 08:04:35;;;;;;;26.02;17.20;;;14.30;99.90;;;15.15;100.00;100770.66;5063988;28;20060;-75
2023/05/11 08:07:01;;;;;;;23.45;16.20;;;14.40;99.90;;;15.28;100.00;100765.97;5053864;28;20230;-76
2023/05/11 08:09:26;;;;;;;23.00;15.60;;;14.40;99.90;;;15.10;100.00;100759.59;5064682;28;20028;-75
2023/05/11 08:11:55;;;;;;;22.05;14.85;;;14.30;99.90;;;19.06;100.00;100735.22;5070295;28;20036;-76
2023/05/11 08:14:23;;;;;;;21.63;14.98;;;14.30;99.90;;;15.19;100.00;100746.28;5068543;28;20037;-77
2023/05/11 08:16:49;;;;;;;20.35;14.77;;;14.30;99.90;;;14.78;100.00;100762.78;5069677;28;20036;-75
2023/05/11 08:19:15;;;;;;;19.00;14.13;;;14.20;99.90;;;14.69;100.00;100754.06;5071477;28;20162;-75
2023/05/11 08:21:41;;;;;;;17.90;13.50;;;14.20;99.90;;;14.82;100.00;100766.72;5061005;28;20041;-77
2023/05/11 08:24:07;;;;;;;19.20;13.80;;;14.20;99.90;;;14.85;100.00;100779.97;5063995;28;20067;-76
2023/05/11 08:26:33;;;;;;;20.63;13.65;;;14.30;99.90;;;14.88;100.00;100768.50;5061284;28;20476;-76
2023/05/11 08:28:58;;;;;;;19.13;12.95;;;14.30;99.90;;;14.95;100.00;100773.84;5058521;28;20036;-76
2023/05/11 08:31:24;;;;;;;18.10;12.60;;;14.40;99.90;;;15.04;100.00;100772.38;5057371;28;20381;-76
2023/05/11 08:33:50;;;;;;;17.45;12.15;;;14.40;99.90;;;15.18;100.00;100772.94;5055835;28;20033;-76
2023/05/11 08:36:16;;;;;;;18.58;12.35;;;14.40;99.90;;;15.18;100.00;100772.09;5056550;28;20048;-75
2023/05/11 08:38:42;;;;;;;11.95;9.18;;;14.50;99.90;;;15.14;100.00;100774.50;5065350;28;20109;-77
2023/05/11 08:41:11;;;;;;;9.68;6.90;;;14.40;99.90;;;15.05;100.00;100778.72;5055971;28;20063;-76
2023/05/11 08:43:39;;;;;;;10.95;7.78;;;14.40;99.90;;;15.01;100.00;100775.63;5066749;28;20498;-76
2023/05/11 08:46:07;;;;;;;9.60;7.30;;;14.40;99.90;;;14.91;100.00;100773.50;5067883;28;20400;-77
2023/05/11 08:48:34;;;;;;;10.52;8.13;;;14.40;99.90;;;15.26;100.00;100771.72;5071124;28;20036;-75
2023/05/11 08:51:02;;;;;;;12.68;8.77;;;14.50;99.90;;;15.59;100.00;100772.03;5071257;28;20123;-76
2023/05/11 08:53:28;;;;;;;12.52;9.40;;;14.70;99.90;;;15.56;100.00;100767.84;5067965;28;20422;-75
2023/05/11 08:55:57;;;;;;;13.65;9.25;;;14.90;99.90;;;15.74;100.00;100765.97;5071380;28;20029;-77
2023/05/11 08:58:23;;;;;;;12.45;9.25;;;15.00;99.90;;;15.59;100.00;100759.13;5069778;28;20104;-78
2023/05/11 09:00:50;;;;;;;11.48;8.63;;;15.10;99.90;;;15.71;100.00;100771.97;5070735;28;20380;-77
2023/05/11 09:03:20;;;;;;;10.52;7.95;;;15.20;99.90;;;15.79;100.00;100766.06;5068819;28;20033;-77
2023/05/11 09:05:47;;;;;;;12.27;8.15;;;15.10;99.90;;;16.00;100.00;100767.25;5070721;28;20384;-78
2023/05/11 09:08:16;;;;;;;10.68;8.18;;;15.20;99.90;;;16.17;100.00;100770.00;5070319;28;20029;-77
2023/05/11 09:10:43;;;;;;;9.35;7.13;;;15.30;99.90;;;15.96;100.00;100761.44;5071101;28;20032;-78
2023/05/11 09:13:10;;;;;;;9.27;7.13;;;15.40;99.90;;;15.68;100.00;100763.16;5076284;28;20029;-77
2023/05/11 09:15:36;;;;;;;9.90;6.80;;;15.30;99.90;;;16.00;100.00;100763.69;5067275;28;20045;-79
2023/05/11 09:18:02;;;;;;;10.07;6.47;;;15.30;99.90;;;15.99;100.00;100759.28;5065742;28;20097;-78
2023/05/11 09:20:33;;;;;;;10.25;6.15;;;15.30;99.90;;;16.00;100.00;100764.50;5070401;28;20056;-78
2023/05/11 09:22:59;;;;;;;7.43;5.30;;;15.30;99.90;;;16.14;100.00;100759.50;5068603;28;20044;-77
2023/05/11 09:25:30;;;;;;;6.80;4.55;;;15.30;99.90;;;16.00;100.00;100749.94;5062428;28;20440;-78
2023/05/11 09:27:58;;;;;;;6.95;4.95;;;15.30;99.90;;;15.80;100.00;100757.56;5067626;28;20052;-76
2023/05/11 09:30:24;;;;;;;;;;;15.20;99.90;;;15.43;100.00;100747.00;5059218;28;20541;-78
2023/05/11 09:32:59;;;;;;;8.43;5.35;;;15.10;99.90;;;14.94;100.00;100756.53;5067322;28;20008;-77
2023/05/11 09:35:30;;;;;;;6.82;5.10;;;14.80;99.90;;;14.82;100.00;100764.78;5068219;28;20041;-77
2023/05/11 09:38:10;;;;;;;7.05;5.00;;;14.60;99.90;;;14.71;100.00;100754.69;5080207;28;20045;-78
2023/05/11 09:40:54;;;;;;;7.57;4.85;;;14.50;99.90;;;14.83;100.00;100773.88;5077876;28;20116;-79
2023/05/11 09:43:26;;;;;;;7.72;5.05;;;14.40;99.90;;;14.80;100.00;100772.44;5064981;28;20040;-78
2023/05/11 09:45:55;;;;;;;8.93;5.47;;;14.50;99.90;;;14.67;100.00;100757.03;5058724;28;20048;-76
2023/05/11 09:48:20;;;;;;;8.88;5.40;;;14.50;99.90;;;14.53;100.00;100772.09;5052713;28;20128;-77
2023/05/11 09:50:48;;;;;;;7.28;5.40;;;14.40;99.90;;;14.37;100.00;100768.19;5052442;28;20127;-77
2023/05/11 09:53:13;;;;;;;8.07;5.28;;;14.30;99.90;;;14.76;100.00;100767.69;5052687;28;20192;-77
2023/05/11 09:55:54;;;;;;;7.38;4.97;;;14.30;99.90;;;14.76;100.00;100770.44;5058616;28;20507;-76
2023/05/11 09:58:20;;;;;;;9.27;5.90;;;14.50;99.90;;;14.80;100.00;100766.94;5057505;28;20072;-75
2023/05/11 10:00:53;;;;;;;8.52;4.90;;;14.60;99.90;;;14.88;100.00;100771.22;5051496;28;20033;-75